Terminal Aerodrome Forecast
Issued by NWS Grand Forks, ND

Home | Current Version | Previous Version | Graphics & Text | Print | Product List | Glossary On
Versions: 1 2 3 4 5 6 7 8 9 10 11 12 13 14
000
FTUS43 KFGF 252338
TAFFAR
TAF
KFAR 252338Z 2600/2624 06010KT P6SM -RA OVC014
     FM261000 06015KT P6SM OVC008
     FM262000 08014KT P6SM OVC025
     FM262300 09012KT P6SM OVC040=

USA.gov is the U.S. government's official web portal to all federal, state and local government web resources and services.